sensor_id;sensor_type;location;lat;lon;timestamp;pressure;altitude;pressure_sealevel;temperature;humidity
11114;BME280;5610;52.154;9.198;2024-03-08T00:01:39;101293.94;;;2.05;100.00
11114;BME280;5610;52.154;9.198;2024-03-08T00:04:24;101286.91;;;2.06;100.00
11114;BME280;5610;52.154;9.198;2024-03-08T00:07:11;101291.25;;;2.08;100.00
11114;BME280;5610;52.154;9.198;2024-03-08T00:09:57;101287.69;;;2.11;100.00
11114;BME280;5610;52.154;9.198;2024-03-08T00:12:44;101278.06;;;2.10;100.00
11114;BME280;5610;52.154;9.198;2024-03-08T00:15:30;101274.50;;;2.14;100.00
11114;BME280;5610;52.154;9.198;2024-03-08T00:18:16;101280.69;;;2.10;100.00
11114;BME280;5610;52.154;9.198;2024-03-08T00:21:01;101280.00;;;2.00;100.00
11114;BME280;5610;52.154;9.198;2024-03-08T00:23:48;101284.50;;;1.92;100.00
11114;BME280;5610;52.154;9.198;2024-03-08T00:26:33;101285.28;;;1.97;100.00
11114;BME280;5610;52.154;9.198;2024-03-08T00:29:18;101282.69;;;1.96;100.00
11114;BME280;5610;52.154;9.198;2024-03-08T00:32:04;101286.91;;;2.06;100.00
11114;BME280;5610;52.154;9.198;2024-03-08T00:34:49;101288.69;;;2.04;100.00
11114;BME280;5610;52.154;9.198;2024-03-08T00:37:35;101271.16;;;2.06;100.00
11114;BME280;5610;52.154;9.198;2024-03-08T00:40:22;101279.53;;;2.28;100.00
11114;BME280;5610;52.154;9.198;2024-03-08T00:43:07;101275.94;;;2.33;100.00
11114;BME280;5610;52.154;9.198;2024-03-08T00:45:53;101280.13;;;2.43;100.00
11114;BME280;5610;52.154;9.198;2024-03-08T00:48:38;101265.34;;;2.36;100.00
11114;BME280;5610;52.154;9.198;2024-03-08T00:51:23;101266.13;;;2.43;100.00
11114;BME280;5610;52.154;9.198;2024-03-08T00:54:08;101267.09;;;2.37;100.00
11114;BME280;5610;52.154;9.198;2024-03-08T00:56:55;101255.53;;;2.46;100.00
11114;BME280;5610;52.154;9.198;2024-03-08T00:59:40;101266.91;;;2.48;100.00
11114;BME280;5610;52.154;9.198;2024-03-08T01:02:26;101255.56;;;2.44;100.00
11114;BME280;5610;52.154;9.198;2024-03-08T01:05:11;101250.19;;;2.51;100.00
11114;BME280;5610;52.154;9.198;2024-03-08T01:07:57;101244.00;;;2.55;100.00
11114;BME280;5610;52.154;9.198;2024-03-08T01:10:42;101252.91;;;2.47;100.00
11114;BME280;5610;52.154;9.198;2024-03-08T01:13:29;101245.69;;;2.57;100.00
11114;BME280;5610;52.154;9.198;2024-03-08T01:16:14;101238.56;;;2.62;100.00
11114;BME280;5610;52.154;9.198;2024-03-08T01:19:01;101234.19;;;2.63;100.00
11114;BME280;5610;52.154;9.198;2024-03-08T01:21:47;101226.31;;;2.61;100.00
11114;BME280;5610;52.154;9.198;2024-03-08T01:24:32;101222.94;;;2.55;100.00
11114;BME280;5610;52.154;9.198;2024-03-08T01:27:19;101226.69;;;2.41;100.00
11114;BME280;5610;52.154;9.198;2024-03-08T01:30:06;101222.16;;;2.50;100.00
11114;BME280;5610;52.154;9.198;2024-03-08T01:32:53;101222.25;;;2.43;100.00
11114;BME280;5610;52.154;9.198;2024-03-08T01:35:38;101217.03;;;2.42;100.00
11114;BME280;5610;52.154;9.198;2024-03-08T01:38:25;101214.31;;;2.46;100.00
11114;BME280;5610;52.154;9.198;2024-03-08T01:41:10;101206.53;;;2.42;100.00
11114;BME280;5610;52.154;9.198;2024-03-08T01:43:56;101200.59;;;2.31;100.00
11114;BME280;5610;52.154;9.198;2024-03-08T01:46:43;101197.09;;;2.30;100.00
11114;BME280;5610;52.154;9.198;2024-03-08T01:49:29;101198.72;;;2.37;100.00
11114;BME280;5610;52.154;9.198;2024-03-08T01:52:15;101192.81;;;2.26;100.00
11114;BME280;5610;52.154;9.198;2024-03-08T01:55:03;101184.75;;;2.34;100.00
11114;BME280;5610;52.154;9.198;2024-03-08T01:57:51;101191.03;;;2.27;100.00
11114;BME280;5610;52.154;9.198;2024-03-08T02:00:37;101178.81;;;2.23;100.00
11114;BME280;5610;52.154;9.198;2024-03-08T02:03:26;101185.06;;;2.17;100.00
11114;BME280;5610;52.154;9.198;2024-03-08T02:06:12;101179.69;;;2.23;100.00
11114;BME280;5610;52.154;9.198;2024-03-08T02:08:58;101179.84;;;2.15;100.00
11114;BME280;5610;52.154;9.198;2024-03-08T02:11:44;101175.44;;;2.16;100.00
11114;BME280;5610;52.154;9.198;2024-03-08T02:14:30;101178.25;;;2.07;100.00
11114;BME280;5610;52.154;9.198;2024-03-08T02:17:16;101173.84;;;2.07;100.00
11114;BME280;5610;52.154;9.198;2024-03-08T02:20:03;101173.03;;;2.04;100.00
11114;BME280;5610;52.154;9.198;2024-03-08T02:22:50;101177.41;;;2.03;100.00
11114;BME280;5610;52.154;9.198;2024-03-08T02:25:35;101165.31;;;1.95;100.00
11114;BME280;5610;52.154;9.198;2024-03-08T02:28:21;101174.19;;;1.87;100.00
11114;BME280;5610;52.154;9.198;2024-03-08T02:31:07;101165.38;;;1.91;100.00
11114;BME280;5610;52.154;9.198;2024-03-08T02:33:52;101157.28;;;2.02;100.00
11114;BME280;5610;52.154;9.198;2024-03-08T02:36:38;101151.22;;;2.00;100.00
11114;BME280;5610;52.154;9.198;2024-03-08T02:39:24;101150.34;;;2.00;100.00
11114;BME280;5610;52.154;9.198;2024-03-08T02:42:11;101144.13;;;2.04;100.00
11114;BME280;5610;52.154;9.198;2024-03-08T02:44:57;101146.75;;;2.04;100.00
11114;BME280;5610;52.154;9.198;2024-03-08T02:47:42;101144.06;;;2.07;100.00
11114;BME280;5610;52.154;9.198;2024-03-08T02:50:27;101146.81;;;2.01;100.00
11114;BME280;5610;52.154;9.198;2024-03-08T02:53:13;101144.94;;;2.07;100.00
11114;BME280;5610;52.154;9.198;2024-03-08T02:55:59;101140.72;;;1.99;100.00
11114;BME280;5610;52.154;9.198;2024-03-08T02:58:44;101140.63;;;2.05;100.00
11114;BME280;5610;52.154;9.198;2024-03-08T03:01:33;101142.41;;;2.01;100.00
11114;BME280;5610;52.154;9.198;2024-03-08T03:04:20;101135.50;;;1.96;100.00
11114;BME280;5610;52.154;9.198;2024-03-08T03:07:05;101125.94;;;1.93;100.00
11114;BME280;5610;52.154;9.198;2024-03-08T03:09:50;101118.47;;;1.70;100.00
11114;BME280;5610;52.154;9.198;2024-03-08T03:12:37;101127.19;;;1.72;100.00
11114;BME280;5610;52.154;9.198;2024-03-08T03:15:22;101116.69;;;1.69;100.00
11114;BME280;5610;52.154;9.198;2024-03-08T03:18:07;101122.72;;;1.77;100.00
11114;BME280;5610;52.154;9.198;2024-03-08T03:20:52;101114.06;;;1.69;100.00
11114;BME280;5610;52.154;9.198;2024-03-08T03:23:38;101110.69;;;1.64;100.00
11114;BME280;5610;52.154;9.198;2024-03-08T03:26:23;101103.56;;;1.69;100.00
11114;BME280;5610;52.154;9.198;2024-03-08T03:29:10;101106.09;;;1.75;100.00
11114;BME280;5610;52.154;9.198;2024-03-08T03:31:55;101113.75;;;1.87;100.00
11114;BME280;5610;52.154;9.198;2024-03-08T03:34:40;101107.53;;;1.93;100.00
11114;BME280;5610;52.154;9.198;2024-03-08T03:37:27;101117.06;;;1.99;100.00
11114;BME280;5610;52.154;9.198;2024-03-08T03:40:13;101110.25;;;1.88;100.00
11114;BME280;5610;52.154;9.198;2024-03-08T03:42:59;101099.22;;;1.70;100.00
11114;BME280;5610;52.154;9.198;2024-03-08T03:45:45;101102.84;;;1.61;100.00
11114;BME280;5610;52.154;9.198;2024-03-08T03:48:31;101113.53;;;1.50;100.00
11114;BME280;5610;52.154;9.198;2024-03-08T03:51:16;101104.03;;;1.43;100.00
11114;BME280;5610;52.154;9.198;2024-03-08T03:54:01;101107.78;;;1.28;100.00
11114;BME280;5610;52.154;9.198;2024-03-08T03:56:47;101106.00;;;1.30;100.00
11114;BME280;5610;52.154;9.198;2024-03-08T03:59:36;101099.03;;;1.26;100.00
11114;BME280;5610;52.154;9.198;2024-03-08T04:02:23;101100.00;;;1.22;100.00
11114;BME280;5610;52.154;9.198;2024-03-08T04:05:09;101093.06;;;1.18;100.00
11114;BME280;5610;52.154;9.198;2024-03-08T04:07:55;101101.03;;;1.14;100.00
11114;BME280;5610;52.154;9.198;2024-03-08T04:10:40;101095.00;;;1.05;100.00
11114;BME280;5610;52.154;9.198;2024-03-08T04:13:26;101094.97;;;1.08;100.00
11114;BME280;5610;52.154;9.198;2024-03-08T04:16:12;101092.31;;;1.10;100.00
11114;BME280;5610;52.154;9.198;2024-03-08T04:18:59;101093.25;;;1.07;100.00
11114;BME280;5610;52.154;9.198;2024-03-08T04:21:47;101082.72;;;1.09;100.00
11114;BME280;5610;52.154;9.198;2024-03-08T04:24:33;101089.66;;;1.13;100.00
11114;BME280;5610;52.154;9.198;2024-03-08T04:27:18;101089.56;;;1.18;100.00
11114;BME280;5610;52.154;9.198;2024-03-08T04:30:04;101083.38;;;1.22;100.00
11114;BME280;5610;52.154;9.198;2024-03-08T04:32:51;101084.41;;;1.13;100.00
11114;BME280;5610;52.154;9.198;2024-03-08T04:35:37;101080.88;;;1.14;100.00
11114;BME280;5610;52.154;9.198;2024-03-08T04:38:23;101082.44;;;1.27;100.00
11114;BME280;5610;52.154;9.198;2024-03-08T04:41:08;101086.78;;;1.27;100.00
11114;BME280;5610;52.154;9.198;2024-03-08T04:43:54;101081.63;;;1.22;100.00
11114;BME280;5610;52.154;9.198;2024-03-08T04:46:41;101075.31;;;1.32;100.00
11114;BME280;5610;52.154;9.198;2024-03-08T04:49:26;101077.88;;;1.37;100.00
11114;BME280;5610;52.154;9.198;2024-03-08T04:52:13;101066.53;;;1.35;100.00
11114;BME280;5610;52.154;9.198;2024-03-08T04:54:58;101075.28;;;1.35;100.00
11114;BME280;5610;52.154;9.198;2024-03-08T04:57:44;101070.06;;;1.32;100.00
11114;BME280;5610;52.154;9.198;2024-03-08T05:00:30;101069.22;;;1.32;100.00
11114;BME280;5610;52.154;9.198;2024-03-08T05:03:15;101065.78;;;1.27;100.00
11114;BME280;5610;52.154;9.198;2024-03-08T05:06:00;101064.91;;;1.28;100.00
11114;BME280;5610;52.154;9.198;2024-03-08T05:08:47;101058.03;;;1.21;100.00
11114;BME280;5610;52.154;9.198;2024-03-08T05:11:32;101061.53;;;1.21;100.00
11114;BME280;5610;52.154;9.198;2024-03-08T05:14:17;101063.25;;;1.22;100.00
11114;BME280;5610;52.154;9.198;2024-03-08T05:17:04;101055.28;;;1.28;100.00
11114;BME280;5610;52.154;9.198;2024-03-08T05:19:51;101056.03;;;1.35;100.00
11114;BME280;5610;52.154;9.198;2024-03-08T05:22:36;101050.84;;;1.30;100.00
11114;BME280;5610;52.154;9.198;2024-03-08T05:25:22;101047.41;;;1.28;100.00
11114;BME280;5610;52.154;9.198;2024-03-08T05:28:07;101052.47;;;1.39;100.00
11114;BME280;5610;52.154;9.198;2024-03-08T05:30:53;101052.41;;;1.41;100.00
11114;BME280;5610;52.154;9.198;2024-03-08T05:33:40;101052.75;;;1.22;100.00
11114;BME280;5610;52.154;9.198;2024-03-08T05:36:27;101052.78;;;1.19;100.00
11114;BME280;5610;52.154;9.198;2024-03-08T05:39:12;101052.81;;;1.18;100.00
11114;BME280;5610;52.154;9.198;2024-03-08T05:41:58;101046.94;;;1.03;100.00
11114;BME280;5610;52.154;9.198;2024-03-08T05:44:44;101049.47;;;1.09;100.00
11114;BME280;5610;52.154;9.198;2024-03-08T05:47:29;101050.41;;;1.04;100.00
11114;BME280;5610;52.154;9.198;2024-03-08T05:50:14;101043.63;;;0.92;100.00
11114;BME280;5610;52.154;9.198;2024-03-08T05:52:59;101043.53;;;0.97;100.00
11114;BME280;5610;52.154;9.198;2024-03-08T05:55:45;101044.31;;;1.03;100.00
11114;BME280;5610;52.154;9.198;2024-03-08T05:58:31;101048.59;;;1.09;100.00
11114;BME280;5610;52.154;9.198;2024-03-08T06:01:17;101050.50;;;0.98;100.00
11114;BME280;5610;52.154;9.198;2024-03-08T06:04:02;101046.88;;;1.08;100.00
11114;BME280;5610;52.154;9.198;2024-03-08T06:06:48;101042.41;;;1.13;100.00
11114;BME280;5610;52.154;9.198;2024-03-08T06:09:35;101050.25;;;1.15;100.00
11114;BME280;5610;52.154;9.198;2024-03-08T06:12:21;101047.78;;;1.04;100.00
11114;BME280;5610;52.154;9.198;2024-03-08T06:15:09;101046.75;;;1.13;100.00
11114;BME280;5610;52.154;9.198;2024-03-08T06:17:58;101052.88;;;1.15;100.00
11114;BME280;5610;52.154;9.198;2024-03-08T06:20:43;101045.16;;;1.04;100.00
11114;BME280;5610;52.154;9.198;2024-03-08T06:23:30;101044.28;;;1.05;100.00
11114;BME280;5610;52.154;9.198;2024-03-08T06:26:15;101043.31;;;1.10;100.00
11114;BME280;5610;52.154;9.198;2024-03-08T06:29:00;101041.34;;;1.23;100.00
11114;BME280;5610;52.154;9.198;2024-03-08T06:31:47;101043.09;;;1.24;100.00
11114;BME280;5610;52.154;9.198;2024-03-08T06:34:32;101051.63;;;1.37;100.00
11114;BME280;5610;52.154;9.198;2024-03-08T06:37:18;101044.16;;;1.14;100.00
11114;BME280;5610;52.154;9.198;2024-03-08T06:40:07;101047.38;;;1.30;100.00
11114;BME280;5610;52.154;9.198;2024-03-08T06:42:56;101040.50;;;1.23;100.00
11114;BME280;5610;52.154;9.198;2024-03-08T06:45:41;101044.72;;;1.31;100.00
11114;BME280;5610;52.154;9.198;2024-03-08T06:48:27;101041.41;;;1.20;100.00
11114;BME280;5610;52.154;9.198;2024-03-08T06:51:14;101044.59;;;1.37;100.00
11114;BME280;5610;52.154;9.198;2024-03-08T06:53:59;101047.16;;;1.41;100.00
11114;BME280;5610;52.154;9.198;2024-03-08T06:56:44;101044.31;;;1.54;100.00
11114;BME280;5610;52.154;9.198;2024-03-08T06:59:29;101039.91;;;1.55;100.00
11114;BME280;5610;52.154;9.198;2024-03-08T07:02:15;101035.81;;;1.42;100.00
11114;BME280;5610;52.154;9.198;2024-03-08T07:05:02;101039.03;;;1.54;100.00
11114;BME280;5610;52.154;9.198;2024-03-08T07:07:48;101044.16;;;1.63;100.00
11114;BME280;5610;52.154;9.198;2024-03-08T07:10:33;101043.72;;;1.86;100.00
11114;BME280;5610;52.154;9.198;2024-03-08T07:13:18;101040.69;;;2.06;100.00
11114;BME280;5610;52.154;9.198;2024-03-08T07:16:04;101045.72;;;2.17;100.00
11114;BME280;5610;52.154;9.198;2024-03-08T07:18:49;101043.47;;;1.99;100.00
11114;BME280;5610;52.154;9.198;2024-03-08T07:21:37;101046.53;;;2.20;100.00
11114;BME280;5610;52.154;9.198;2024-03-08T07:24:23;101045.31;;;2.37;100.00
11114;BME280;5610;52.154;9.198;2024-03-08T07:27:22;101041.31;;;2.61;100.00
11114;BME280;5610;52.154;9.198;2024-03-08T07:30:08;101047.84;;;2.80;100.00
11114;BME280;5610;52.154;9.198;2024-03-08T07:32:54;101046.72;;;2.92;100.00
11114;BME280;5610;52.154;9.198;2024-03-08T07:35:39;101040.97;;;3.12;100.00
11114;BME280;5610;52.154;9.198;2024-03-08T07:38:27;101035.38;;;3.24;100.00
11114;BME280;5610;52.154;9.198;2024-03-08T07:41:15;101040.38;;;3.35;100.00
11114;BME280;5610;52.154;9.198;2024-03-08T07:44:00;101042.22;;;3.31;100.00
11114;BME280;5610;52.154;9.198;2024-03-08T07:46:47;101038.25;;;3.49;100.00
11114;BME280;5610;52.154;9.198;2024-03-08T07:49:32;101039.72;;;3.61;100.00
11114;BME280;5610;52.154;9.198;2024-03-08T07:52:18;101041.28;;;3.68;100.00
11114;BME280;5610;52.154;9.198;2024-03-08T07:55:05;101030.22;;;3.86;100.00
11114;BME280;5610;52.154;9.198;2024-03-08T07:57:50;101031.13;;;3.85;100.00
11114;BME280;5610;52.154;9.198;2024-03-08T08:00:36;101023.06;;;3.91;100.00
11114;BME280;5610;52.154;9.198;2024-03-08T08:03:21;101023.06;;;3.91;100.00
11114;BME280;5610;52.154;9.198;2024-03-08T08:06:06;101017.44;;;4.03;100.00
11114;BME280;5610;52.154;9.198;2024-03-08T08:08:52;101017.00;;;4.19;100.00
11114;BME280;5610;52.154;9.198;2024-03-08T08:11:40;101022.63;;;4.36;100.00
11114;BME280;5610;52.154;9.198;2024-03-08T08:14:27;101031.41;;;4.36;100.00
11114;BME280;5610;52.154;9.198;2024-03-08T08:17:13;101022.47;;;4.12;100.00
11114;BME280;5610;52.154;9.198;2024-03-08T08:19:58;101028.78;;;4.36;100.00
11114;BME280;5610;52.154;9.198;2024-03-08T08:22:43;101024.50;;;4.62;100.00
11114;BME280;5610;52.154;9.198;2024-03-08T08:25:28;101019.22;;;4.62;100.00
11114;BME280;5610;52.154;9.198;2024-03-08T08:28:15;101013.41;;;4.79;100.00
11114;BME280;5610;52.154;9.198;2024-03-08T08:31:01;101011.22;;;4.91;100.00
11114;BME280;5610;52.154;9.198;2024-03-08T08:33:48;101015.56;;;4.94;100.00
11114;BME280;5610;52.154;9.198;2024-03-08T08:36:32;101009.22;;;5.26;100.00
11114;BME280;5610;52.154;9.198;2024-03-08T08:39:18;101016.34;;;5.49;100.00
11114;BME280;5610;52.154;9.198;2024-03-08T08:42:04;101008.13;;;5.58;100.00
11114;BME280;5610;52.154;9.198;2024-03-08T08:44:52;100999.13;;;5.87;100.00
11114;BME280;5610;52.154;9.198;2024-03-08T08:47:37;100996.38;;;5.90;100.00
11114;BME280;5610;52.154;9.198;2024-03-08T08:50:23;101001.16;;;6.29;100.00
11114;BME280;5610;52.154;9.198;2024-03-08T08:53:08;101003.13;;;6.46;100.00
11114;BME280;5610;52.154;9.198;2024-03-08T08:55:54;101000.41;;;6.71;100.00
11114;BME280;5610;52.154;9.198;2024-03-08T08:58:40;100996.56;;;7.00;100.00
11114;BME280;5610;52.154;9.198;2024-03-08T09:01:27;100993.53;;;7.09;100.00
11114;BME280;5610;52.154;9.198;2024-03-08T09:04:13;100987.59;;;7.24;100.00
11114;BME280;5610;52.154;9.198;2024-03-08T09:06:58;100982.44;;;7.21;98.20
11114;BME280;5610;52.154;9.198;2024-03-08T09:09:45;100978.66;;;7.47;95.42
11114;BME280;5610;52.154;9.198;2024-03-08T09:12:30;100975.28;;;7.64;95.97
11114;BME280;5610;52.154;9.198;2024-03-08T09:15:16;100971.25;;;7.94;92.79
11114;BME280;5610;52.154;9.198;2024-03-08T09:18:06;100967.25;;;8.23;89.10
11114;BME280;5610;52.154;9.198;2024-03-08T09:20:52;100969.72;;;8.47;89.04
11114;BME280;5610;52.154;9.198;2024-03-08T09:23:38;100958.88;;;8.88;86.42
11114;BME280;5610;52.154;9.198;2024-03-08T09:26:25;100950.13;;;8.86;79.20
11114;BME280;5610;52.154;9.198;2024-03-08T09:29:10;100948.34;;;9.03;77.22
11114;BME280;5610;52.154;9.198;2024-03-08T09:31:55;100951.63;;;9.43;75.37
11114;BME280;5610;52.154;9.198;2024-03-08T09:34:42;100946.22;;;9.62;71.83
11114;BME280;5610;52.154;9.198;2024-03-08T09:37:27;100939.72;;;9.68;72.97
11114;BME280;5610;52.154;9.198;2024-03-08T09:40:12;100929.19;;;9.82;71.47
11114;BME280;5610;52.154;9.198;2024-03-08T09:42:59;100933.47;;;10.49;71.45
11114;BME280;5610;52.154;9.198;2024-03-08T09:45:45;100926.50;;;10.62;68.06
11114;BME280;5610;52.154;9.198;2024-03-08T09:48:35;100907.06;;;11.06;65.95
11114;BME280;5610;52.154;9.198;2024-03-08T09:51:26;100921.28;;;10.91;64.10
11114;BME280;5610;52.154;9.198;2024-03-08T09:54:12;100904.38;;;11.36;63.37
11114;BME280;5610;52.154;9.198;2024-03-08T09:56:57;100898.34;;;11.91;61.97
11114;BME280;5610;52.154;9.198;2024-03-08T09:59:42;100893.31;;;12.28;61.47
11114;BME280;5610;52.154;9.198;2024-03-08T10:02:32;100880.84;;;12.68;58.88
11114;BME280;5610;52.154;9.198;2024-03-08T10:05:18;100875.31;;;12.71;56.88
11114;BME280;5610;52.154;9.198;2024-03-08T10:08:05;100874.09;;;13.02;56.17
11114;BME280;5610;52.154;9.198;2024-03-08T10:10:51;100863.25;;;13.31;55.60
11114;BME280;5610;52.154;9.198;2024-03-08T10:13:36;100864.94;;;13.44;54.75
11114;BME280;5610;52.154;9.198;2024-03-08T10:16:22;100863.34;;;13.67;52.80
11114;BME280;5610;52.154;9.198;2024-03-08T10:19:08;100865.84;;;13.32;53.43
11114;BME280;5610;52.154;9.198;2024-03-08T10:21:55;100867.38;;;13.86;52.87
11114;BME280;5610;52.154;9.198;2024-03-08T10:24:44;100855.16;;;14.31;51.54
11114;BME280;5610;52.154;9.198;2024-03-08T10:27:29;100851.78;;;15.57;48.89
11114;BME280;5610;52.154;9.198;2024-03-08T10:30:15;100846.75;;;17.37;45.43
11114;BME280;5610;52.154;9.198;2024-03-08T10:33:04;100831.59;;;19.61;42.12
11114;BME280;5610;52.154;9.198;2024-03-08T10:35:50;100840.66;;;21.92;38.72
11114;BME280;5610;52.154;9.198;2024-03-08T10:38:36;100821.19;;;23.92;35.18
11114;BME280;5610;52.154;9.198;2024-03-08T10:41:26;100825.78;;;25.23;33.42
11114;BME280;5610;52.154;9.198;2024-03-08T10:44:22;100822.41;;;26.60;31.56
11114;BME280;5610;52.154;9.198;2024-03-08T10:47:17;100808.69;;;27.59;30.22
11114;BME280;5610;52.154;9.198;2024-03-08T10:50:08;100806.53;;;28.30;29.24
11114;BME280;5610;52.154;9.198;2024-03-08T10:52:57;100807.72;;;29.22;28.52
11114;BME280;5610;52.154;9.198;2024-03-08T10:55:46;100797.88;;;29.86;27.90
11114;BME280;5610;52.154;9.198;2024-03-08T10:58:33;100794.78;;;30.20;27.72
11114;BME280;5610;52.154;9.198;2024-03-08T11:01:20;100792.91;;;30.84;26.85
11114;BME280;5610;52.154;9.198;2024-03-08T11:04:06;100788.06;;;31.04;26.96
11114;BME280;5610;52.154;9.198;2024-03-08T11:06:51;100778.47;;;31.13;26.55
11114;BME280;5610;52.154;9.198;2024-03-08T11:09:38;100772.63;;;31.28;27.09
11114;BME280;5610;52.154;9.198;2024-03-08T11:12:24;100761.00;;;31.63;25.57
11114;BME280;5610;52.154;9.198;2024-03-08T11:15:14;100758.13;;;31.58;26.08
11114;BME280;5610;52.154;9.198;2024-03-08T11:18:02;100752.38;;;31.78;25.77
11114;BME280;5610;52.154;9.198;2024-03-08T11:20:54;100745.94;;;31.47;25.70
11114;BME280;5610;52.154;9.198;2024-03-08T11:23:41;100733.06;;;31.96;25.59
11114;BME280;5610;52.154;9.198;2024-03-08T11:26:27;100725.72;;;32.62;24.74
11114;BME280;5610;52.154;9.198;2024-03-08T11:29:35;100728.19;;;33.40;24.57
11114;BME280;5610;52.154;9.198;2024-03-08T11:32:27;100715.31;;;34.60;23.46
11114;BME280;5610;52.154;9.198;2024-03-08T11:35:18;100712.22;;;34.39;22.83
11114;BME280;5610;52.154;9.198;2024-03-08T11:38:04;100711.06;;;34.07;23.28
11114;BME280;5610;52.154;9.198;2024-03-08T11:40:50;100701.00;;;34.18;23.17
11114;BME280;5610;52.154;9.198;2024-03-08T11:43:35;100699.03;;;35.36;22.78
11114;BME280;5610;52.154;9.198;2024-03-08T11:46:24;100689.53;;;35.70;22.67
11114;BME280;5610;52.154;9.198;2024-03-08T11:49:13;100674.09;;;36.61;22.15
11114;BME280;5610;52.154;9.198;2024-03-08T11:51:58;100675.72;;;36.94;21.83
11114;BME280;5610;52.154;9.198;2024-03-08T11:54:49;100664.16;;;36.06;21.61
11114;BME280;5610;52.154;9.198;2024-03-08T11:57:36;100665.00;;;35.84;21.85
11114;BME280;5610;52.154;9.198;2024-03-08T12:00:21;100661.00;;;36.29;21.62
11114;BME280;5610;52.154;9.198;2024-03-08T12:03:10;100660.69;;;36.52;21.08
11114;BME280;5610;52.154;9.198;2024-03-08T12:05:58;100653.44;;;35.43;21.67
11114;BME280;5610;52.154;9.198;2024-03-08T12:08:45;100641.03;;;35.46;22.54
11114;BME280;5610;52.154;9.198;2024-03-08T12:11:33;100645.91;;;36.15;21.53
11114;BME280;5610;52.154;9.198;2024-03-08T12:14:20;100629.22;;;36.79;21.90
11114;BME280;5610;52.154;9.198;2024-03-08T12:17:06;100632.81;;;38.15;20.47
11114;BME280;5610;52.154;9.198;2024-03-08T12:19:54;100636.09;;;37.81;20.92
11114;BME280;5610;52.154;9.198;2024-03-08T12:22:42;100615.81;;;38.78;20.59
11114;BME280;5610;52.154;9.198;2024-03-08T12:25:29;100609.66;;;39.55;20.37
11114;BME280;5610;52.154;9.198;2024-03-08T12:28:15;100603.63;;;39.83;19.67
11114;BME280;5610;52.154;9.198;2024-03-08T12:31:01;100600.97;;;40.06;19.09
11114;BME280;5610;52.154;9.198;2024-03-08T12:33:49;100591.34;;;40.52;19.37
11114;BME280;5610;52.154;9.198;2024-03-08T12:36:34;100588.19;;;40.58;18.63
11114;BME280;5610;52.154;9.198;2024-03-08T12:39:22;100579.53;;;41.08;18.83
11114;BME280;5610;52.154;9.198;2024-03-08T12:42:10;100579.63;;;41.03;19.09
11114;BME280;5610;52.154;9.198;2024-03-08T12:44:55;100569.63;;;40.97;19.16
11114;BME280;5610;52.154;9.198;2024-03-08T12:47:40;100567.84;;;41.25;19.11
11114;BME280;5610;52.154;9.198;2024-03-08T12:50:27;100565.00;;;41.49;19.34
11114;BME280;5610;52.154;9.198;2024-03-08T12:53:13;100556.13;;;42.17;18.91
11114;BME280;5610;52.154;9.198;2024-03-08T12:56:00;100558.56;;;41.86;19.03
11114;BME280;5610;52.154;9.198;2024-03-08T12:58:45;100549.34;;;41.85;18.58
11114;BME280;5610;52.154;9.198;2024-03-08T13:01:31;100546.81;;;41.08;19.13
11114;BME280;5610;52.154;9.198;2024-03-08T13:04:17;100526.63;;;40.16;19.67
11114;BME280;5610;52.154;9.198;2024-03-08T13:07:03;100536.41;;;39.79;19.86
11114;BME280;5610;52.154;9.198;2024-03-08T13:09:48;100526.41;;;38.64;19.92
11114;BME280;5610;52.154;9.198;2024-03-08T13:12:34;100519.16;;;37.25;20.53
11114;BME280;5610;52.154;9.198;2024-03-08T13:15:22;100511.13;;;35.82;21.86
11114;BME280;5610;52.154;9.198;2024-03-08T13:18:07;100522.19;;;36.09;22.14
11114;BME280;5610;52.154;9.198;2024-03-08T13:20:53;100515.91;;;36.28;21.78
11114;BME280;5610;52.154;9.198;2024-03-08T13:23:40;100501.41;;;34.21;22.69
11114;BME280;5610;52.154;9.198;2024-03-08T13:26:29;100512.44;;;35.20;22.56
11114;BME280;5610;52.154;9.198;2024-03-08T13:29:17;100500.72;;;35.99;22.42
11114;BME280;5610;52.154;9.198;2024-03-08T13:32:03;100498.56;;;34.93;22.50
11114;BME280;5610;52.154;9.198;2024-03-08T13:34:50;100494.38;;;33.63;23.49
11114;BME280;5610;52.154;9.198;2024-03-08T13:37:36;100485.44;;;34.88;22.98
11114;BME280;5610;52.154;9.198;2024-03-08T13:40:21;100474.19;;;35.44;22.51
11114;BME280;5610;52.154;9.198;2024-03-08T13:43:07;100468.00;;;34.66;23.10
11114;BME280;5610;52.154;9.198;2024-03-08T13:45:53;100471.56;;;33.39;23.73
11114;BME280;5610;52.154;9.198;2024-03-08T13:48:39;100463.34;;;34.28;23.23
11114;BME280;5610;52.154;9.198;2024-03-08T13:51:25;100463.66;;;33.93;23.43
11114;BME280;5610;52.154;9.198;2024-03-08T13:54:10;100468.22;;;34.21;23.27
11114;BME280;5610;52.154;9.198;2024-03-08T13:56:55;100445.88;;;33.38;23.36
11114;BME280;5610;52.154;9.198;2024-03-08T13:59:41;100447.44;;;34.57;23.26
11114;BME280;5610;52.154;9.198;2024-03-08T14:02:28;100442.34;;;34.32;23.11
11114;BME280;5610;52.154;9.198;2024-03-08T14:05:15;100436.34;;;33.63;23.50
11114;BME280;5610;52.154;9.198;2024-03-08T14:08:01;100432.69;;;34.51;22.57
11114;BME280;5610;52.154;9.198;2024-03-08T14:10:47;100415.78;;;35.23;22.95
11114;BME280;5610;52.154;9.198;2024-03-08T14:13:35;100413.38;;;34.78;22.95
11114;BME280;5610;52.154;9.198;2024-03-08T14:16:20;100420.53;;;34.96;22.75
11114;BME280;5610;52.154;9.198;2024-03-08T14:19:06;100411.88;;;35.19;22.64
11114;BME280;5610;52.154;9.198;2024-03-08T14:21:54;100403.28;;;34.45;23.31
11114;BME280;5610;52.154;9.198;2024-03-08T14:24:39;100402.31;;;34.34;23.30
11114;BME280;5610;52.154;9.198;2024-03-08T14:27:24;100398.03;;;34.44;23.18
11114;BME280;5610;52.154;9.198;2024-03-08T14:30:11;100392.50;;;33.88;23.68
11114;BME280;5610;52.154;9.198;2024-03-08T14:32:56;100389.31;;;33.12;24.21
11114;BME280;5610;52.154;9.198;2024-03-08T14:35:42;100381.16;;;32.89;23.83
11114;BME280;5610;52.154;9.198;2024-03-08T14:38:28;100383.78;;;32.95;24.42
11114;BME280;5610;52.154;9.198;2024-03-08T14:41:13;100377.53;;;33.33;23.80